Time;durP1;ratioP1;P1;durP2;ratioP2;P2;SDS_P1;SDS_P2;PMS_P1;PMS_P2;Temp;Humidity;BMP_temperature;BMP_pressure;BME280_temperature;BME280_humidity;BME280_pressure;Samples;Min_cycle;Max_cycle;Signal;HPM_P1;HPM_P2
2022/03/03 00:01:49;;;;;;;11.25;6.72;;;;;;;11.58;25.64;101642.13;4991973;28;20412;-73
2022/03/03 00:04:17;;;;;;;11.07;7.28;;;;;;;11.59;25.37;101645.72;5007917;28;20058;-72
2022/03/03 00:06:44;;;;;;;11.55;7.40;;;;;;;11.56;25.04;101643.16;4991297;28;20077;-72
2022/03/03 00:09:14;;;;;;;11.25;7.47;;;;;;;11.55;25.08;101641.41;5008299;28;20593;-73
2022/03/03 00:11:40;;;;;;;9.95;7.07;;;;;;;11.54;25.04;101637.81;4991585;28;20478;-70
2022/03/03 00:14:07;;;;;;;11.07;7.40;;;;;;;11.53;25.33;101644.19;5007692;28;20447;-73
2022/03/03 00:16:34;;;;;;;11.40;7.63;;;;;;;11.53;25.23;101640.63;5008407;28;20141;-73
2022/03/03 00:19:00;;;;;;;9.65;6.80;;;;;;;11.52;25.25;101637.03;5006696;28;20054;-72
2022/03/03 00:21:27;;;;;;;10.15;7.85;;;;;;;11.51;25.05;101637.13;5008559;28;20563;-72
2022/03/03 00:23:54;;;;;;;11.23;7.30;;;;;;;11.48;25.07;101638.16;5007813;28;20108;-71
2022/03/03 00:26:20;;;;;;;10.93;7.20;;;;;;;11.46;25.25;101634.66;5023396;28;20482;-73
2022/03/03 00:28:47;;;;;;;10.68;7.57;;;;;;;11.43;25.14;101635.72;5011018;28;20139;-71
2022/03/03 00:31:13;;;;;;;11.73;7.47;;;;;;;11.41;25.33;101629.50;5028412;28;20156;-71
2022/03/03 00:33:40;;;;;;;12.32;7.82;;;;;;;11.40;25.37;101633.19;5027613;28;20107;-72
2022/03/03 00:36:07;;;;;;;11.75;7.93;;;;;;;11.39;25.25;101635.97;5007122;28;20056;-73
2022/03/03 00:38:33;;;;;;;10.27;7.57;;;;;;;11.38;25.45;101626.94;5007425;28;20085;-72
2022/03/03 00:41:00;;;;;;;9.98;6.88;;;;;;;11.37;25.28;101622.47;5008395;28;20133;-71
2022/03/03 00:43:26;;;;;;;10.38;7.20;;;;;;;11.36;25.38;101622.59;5007068;28;20266;-71
2022/03/03 00:45:55;;;;;;;10.25;7.15;;;;;;;11.35;25.32;101618.09;5007384;28;20056;-73
2022/03/03 00:48:22;;;;;;;10.57;7.18;;;;;;;11.33;25.63;101612.75;5007573;28;20081;-71
2022/03/03 00:50:48;;;;;;;12.05;7.25;;;;;;;11.32;25.58;101616.44;5007969;28;20542;-71
2022/03/03 00:53:15;;;;;;;9.82;7.07;;;;;;;11.31;25.76;101613.78;5023395;28;20133;-72
2022/03/03 00:55:41;;;;;;;12.05;7.82;;;;;;;11.30;25.67;101622.91;5008544;28;20049;-72
2022/03/03 00:58:09;;;;;;;10.93;7.40;;;;;;;11.26;25.58;101614.06;5005951;28;20465;-71
2022/03/03 01:00:36;;;;;;;10.45;7.40;;;;;;;11.25;25.59;101620.47;5006626;28;20056;-71
2022/03/03 01:03:03;;;;;;;10.75;7.22;;;;;;;11.24;25.58;101610.56;5006557;28;20137;-73
2022/03/03 01:05:33;;;;;;;11.63;7.47;;;;;;;11.24;25.50;101609.69;5005835;28;20076;-73
2022/03/03 01:07:59;;;;;;;11.23;7.15;;;;;;;11.19;25.59;101606.38;5023242;28;20050;-73
2022/03/03 01:10:26;;;;;;;11.18;7.57;;;;;;;11.16;25.66;101604.69;5022343;28;20097;-73
2022/03/03 01:12:52;;;;;;;12.15;7.60;;;;;;;11.14;25.68;101606.63;5008016;28;20436;-72
2022/03/03 01:15:19;;;;;;;11.23;7.55;;;;;;;11.11;25.66;101608.66;5007017;28;20104;-72
2022/03/03 01:17:45;;;;;;;11.00;7.28;;;;;;;11.09;25.86;101616.00;5023151;28;20137;-71
2022/03/03 01:20:12;;;;;;;10.23;7.07;;;;;;;11.07;25.63;101616.97;5006803;28;20061;-73
2022/03/03 01:22:38;;;;;;;10.38;7.00;;;;;;;11.06;25.57;101617.03;5007481;28;20049;-73
2022/03/03 01:25:05;;;;;;;11.35;7.50;;;;;;;11.03;25.77;101617.22;5007562;28;20054;-71
2022/03/03 01:27:33;;;;;;;12.38;7.03;;;;;;;10.99;25.55;101619.22;5009944;28;20056;-73
2022/03/03 01:30:01;;;;;;;11.18;7.82;;;;;;;10.96;25.55;101611.25;5009075;28;20099;-72
2022/03/03 01:32:27;;;;;;;10.88;7.35;;;;;;;10.93;25.64;101605.13;5025962;28;20470;-71
2022/03/03 01:34:54;;;;;;;11.68;7.88;;;;;;;10.91;25.85;101610.63;5026928;28;20133;-72
2022/03/03 01:37:21;;;;;;;10.20;7.40;;;;;;;10.89;25.93;101601.69;5028719;28;20084;-71
2022/03/03 01:39:48;;;;;;;11.48;7.00;;;;;;;10.86;25.73;101603.72;5030510;28;20061;-71
2022/03/03 01:42:15;;;;;;;11.38;7.43;;;;;;;10.86;26.08;101595.56;5031239;28;20099;-73
2022/03/03 01:44:46;;;;;;;10.25;7.55;;;;;;;10.83;26.35;101588.47;5012855;28;20057;-73
2022/03/03 01:47:22;;;;;;;10.63;6.80;;;;;;;10.83;26.32;101591.19;5030931;28;20051;-72
2022/03/03 01:49:50;;;;;;;11.35;7.00;;;;;;;10.80;26.00;101585.91;5014365;28;20425;-73
2022/03/03 01:52:17;;;;;;;9.65;7.07;;;;;;;10.77;26.19;101588.81;5011388;28;20085;-73
2022/03/03 01:54:43;;;;;;;10.68;7.20;;;;;;;10.76;26.18;101587.06;5009797;28;20072;-73
2022/03/03 01:57:10;;;;;;;10.55;7.50;;;;;;;10.75;26.15;101588.00;5011127;28;20081;-72
2022/03/03 01:59:38;;;;;;;10.43;7.13;;;;;;;10.74;26.12;101588.09;5025531;28;20058;-73
2022/03/03 02:02:08;;;;;;;9.85;6.97;;;;;;;10.73;26.43;101589.06;5025817;28;20049;-73
2022/03/03 02:04:35;;;;;;;10.57;7.40;;;;;;;10.68;26.22;101578.47;5010367;28;20100;-71
2022/03/03 02:07:02;;;;;;;9.13;6.20;;;;;;;10.66;26.36;101578.53;5011264;28;20065;-71
2022/03/03 02:09:29;;;;;;;10.95;7.13;;;;;;;10.66;26.43;101580.38;5010313;28;20076;-73
2022/03/03 02:11:56;;;;;;;10.18;6.57;;;;;;;10.62;26.52;101579.66;5011324;28;20542;-72
2022/03/03 02:14:22;;;;;;;10.85;7.13;;;;;;;10.61;26.20;101577.06;5010026;28;20107;-72
2022/03/03 02:16:49;;;;;;;11.75;7.90;;;;;;;10.59;26.57;101579.84;5026784;28;20049;-72
2022/03/03 02:19:17;;;;;;;10.82;6.90;;;;;;;10.58;26.43;101575.38;5025081;28;20129;-73
2022/03/03 02:21:50;;;;;;;11.30;7.30;;;;;;;10.58;26.69;101569.94;5010715;28;20057;-72
2022/03/03 02:24:20;;;;;;;9.95;7.35;;;;;;;10.54;26.38;101565.63;5010158;28;20060;-73
2022/03/03 02:26:47;;;;;;;10.40;7.18;;;;;;;10.52;26.29;101564.88;5009273;28;20114;-73
2022/03/03 02:29:14;;;;;;;9.93;6.85;;;;;;;10.51;26.51;101571.25;5010400;28;20450;-72
2022/03/03 02:31:41;;;;;;;11.75;7.13;;;;;;;10.49;26.56;101556.00;5010924;28;20524;-70
2022/03/03 02:34:08;;;;;;;9.05;6.63;;;;;;;10.47;26.43;101555.19;5024782;28;20061;-71
2022/03/03 02:36:35;;;;;;;12.30;7.35;;;;;;;10.44;26.13;101547.25;5010938;28;20455;-73
2022/03/03 02:39:04;;;;;;;10.32;6.90;;;;;;;10.43;26.48;101553.63;5010414;28;20425;-72
2022/03/03 02:41:31;;;;;;;12.00;7.55;;;;;;;10.40;26.71;101553.78;5010165;28;20457;-73
2022/03/03 02:43:58;;;;;;;11.20;7.55;;;;;;;10.38;26.54;101556.56;5024584;28;20046;-72
2022/03/03 02:46:25;;;;;;;10.13;7.15;;;;;;;10.34;26.65;101555.00;5010605;28;20088;-71
2022/03/03 02:48:52;;;;;;;11.57;7.72;;;;;;;10.30;26.81;101548.84;5024594;28;20133;-73
2022/03/03 02:51:18;;;;;;;10.77;6.78;;;;;;;10.29;26.66;101549.81;5010374;28;20054;-72
2022/03/03 02:53:46;;;;;;;12.55;7.95;;;;;;;10.27;26.66;101546.34;5009502;28;20073;-72
2022/03/03 02:56:12;;;;;;;12.70;7.55;;;;;;;10.24;26.75;101543.78;4992781;28;20081;-71
2022/03/03 02:58:39;;;;;;;10.13;7.72;;;;;;;10.22;26.83;101545.69;5009469;28;20064;-73
2022/03/03 03:01:06;;;;;;;10.60;7.50;;;;;;;10.21;26.90;101540.38;5009950;28;20050;-73
2022/03/03 03:03:33;;;;;;;9.82;7.22;;;;;;;10.18;26.89;101538.69;5009277;28;20041;-72
2022/03/03 03:06:06;;;;;;;9.85;7.45;;;;;;;10.19;27.05;101536.84;5015380;28;20069;-72
2022/03/03 03:08:33;;;;;;;11.43;7.40;;;;;;;10.14;26.94;101541.59;5009602;28;20121;-72
2022/03/03 03:11:02;;;;;;;11.55;7.75;;;;;;;10.13;26.96;101537.16;5010380;28;20052;-72
2022/03/03 03:13:29;;;;;;;10.43;7.28;;;;;;;10.11;27.15;101526.38;5009608;28;20797;-72
2022/03/03 03:15:56;;;;;;;10.20;7.53;;;;;;;10.09;26.76;101531.00;5010278;28;20119;-72
2022/03/03 03:18:23;;;;;;;11.02;7.15;;;;;;;10.08;27.08;101528.38;5024085;28;20108;-71
2022/03/03 03:20:52;;;;;;;10.25;7.20;;;;;;;10.07;27.25;101538.34;5009315;28;20054;-73
2022/03/03 03:23:22;;;;;;;11.43;6.85;;;;;;;10.05;27.26;101532.13;5009306;28;20125;-73
2022/03/03 03:25:49;;;;;;;10.95;6.90;;;;;;;10.02;27.12;101526.88;5024915;28;20136;-73
2022/03/03 03:28:17;;;;;;;11.40;7.60;;;;;;;10.00;27.07;101520.66;5009310;28;20129;-72
2022/03/03 03:30:44;;;;;;;10.23;7.07;;;;;;;9.98;27.15;101521.69;5009246;28;20050;-71
2022/03/03 03:33:11;;;;;;;10.95;7.35;;;;;;;9.96;26.92;101516.38;5025040;28;20172;-73
2022/03/03 03:35:39;;;;;;;9.80;7.28;;;;;;;9.94;27.06;101515.56;5008960;28;20093;-71
2022/03/03 03:38:06;;;;;;;10.05;7.05;;;;;;;9.92;26.86;101520.19;4990011;28;20054;-71
2022/03/03 03:40:33;;;;;;;10.55;7.13;;;;;;;9.91;27.08;101524.72;4989350;28;20046;-73
2022/03/03 03:42:59;;;;;;;11.48;7.43;;;;;;;9.90;27.07;101522.97;4990522;28;20082;-73
2022/03/03 03:45:26;;;;;;;11.35;7.05;;;;;;;9.90;27.08;101516.66;4988004;28;20051;-72
2022/03/03 03:47:53;;;;;;;9.48;6.80;;;;;;;9.89;27.24;101520.34;4989606;28;20046;-73
2022/03/03 03:50:19;;;;;;;12.35;7.97;;;;;;;9.88;27.07;101524.03;4989253;28;20070;-73
2022/03/03 03:52:49;;;;;;;10.70;7.32;;;;;;;9.87;27.38;101519.56;4989947;28;20110;-73
2022/03/03 03:55:15;;;;;;;11.32;7.57;;;;;;;9.85;27.09;101524.19;4988963;28;20767;-72
2022/03/03 03:57:42;;;;;;;12.25;7.30;;;;;;;9.84;27.18;101523.31;4989367;28;20138;-71
2022/03/03 04:00:13;;;;;;;11.30;7.22;;;;;;;9.84;27.18;101525.16;4993087;28;20486;-72
2022/03/03 04:02:44;;;;;;;10.43;7.32;;;;;;;9.82;27.47;101510.78;5007238;28;20049;-71
2022/03/03 04:05:11;;;;;;;11.40;7.03;;;;;;;9.78;27.22;101517.34;5009095;28;20094;-71
2022/03/03 04:07:41;;;;;;;11.95;7.47;;;;;;;9.74;27.31;101510.31;5014033;28;20050;-72
2022/03/03 04:10:09;;;;;;;9.65;6.63;;;;;;;9.73;27.27;101508.56;5017610;28;20136;-71
2022/03/03 04:12:35;;;;;;;11.85;7.40;;;;;;;9.69;27.44;101506.97;5007698;28;20081;-73
2022/03/03 04:15:03;;;;;;;10.73;7.70;;;;;;;9.67;27.38;101508.88;5012899;28;20128;-72
2022/03/03 04:17:30;;;;;;;10.30;6.68;;;;;;;9.63;27.36;101505.47;5009366;28;20038;-72
2022/03/03 04:20:04;;;;;;;10.03;7.13;;;;;;;9.60;27.70;101510.16;5008620;28;20054;-72
2022/03/03 04:22:30;;;;;;;10.95;7.50;;;;;;;9.59;27.56;101509.28;4996682;28;20085;-72
2022/03/03 04:24:57;;;;;;;10.55;6.90;;;;;;;9.57;27.50;101504.91;5003506;28;20109;-71
2022/03/03 04:27:24;;;;;;;12.02;7.68;;;;;;;9.53;27.64;101507.78;5004935;28;20503;-73
2022/03/03 04:29:50;;;;;;;10.88;7.30;;;;;;;9.52;27.52;101508.75;5005225;28;20099;-72
2022/03/03 04:32:18;;;;;;;11.85;7.50;;;;;;;9.51;27.82;101509.69;5007091;28;20058;-72
2022/03/03 04:34:44;;;;;;;11.13;6.82;;;;;;;9.48;27.84;101504.41;5006251;28;20137;-73
2022/03/03 04:37:12;;;;;;;13.63;7.20;;;;;;;9.48;27.69;101495.41;5008413;28;20129;-72
2022/03/03 04:39:38;;;;;;;11.07;7.07;;;;;;;9.45;27.81;101501.88;5006547;28;20497;-72
2022/03/03 04:42:05;;;;;;;12.20;7.65;;;;;;;9.43;27.92;101486.66;5002420;28;20132;-72
2022/03/03 04:44:31;;;;;;;10.00;7.13;;;;;;;9.39;27.70;101491.34;5006066;28;20123;-71
2022/03/03 04:46:58;;;;;;;11.48;7.47;;;;;;;9.37;27.85;101487.84;5001043;28;20479;-71
2022/03/03 04:49:25;;;;;;;11.18;8.15;;;;;;;9.35;27.87;101476.22;5011461;28;20111;-72
2022/03/03 04:51:52;;;;;;;12.07;7.60;;;;;;;9.32;27.88;101468.22;5002440;28;20560;-72
2022/03/03 04:54:19;;;;;;;10.82;7.13;;;;;;;9.31;28.03;101460.19;5006113;28;20133;-72
2022/03/03 04:56:45;;;;;;;12.23;7.03;;;;;;;9.28;27.71;101461.22;5006263;28;20121;-72
2022/03/03 04:59:12;;;;;;;12.02;7.82;;;;;;;9.25;28.10;101461.38;5006243;28;20070;-73
2022/03/03 05:01:38;;;;;;;12.07;7.55;;;;;;;9.20;28.00;101452.63;5006582;28;20124;-72
2022/03/03 05:04:05;;;;;;;13.05;7.68;;;;;;;9.17;28.01;101460.91;5005696;28;20133;-72
2022/03/03 05:06:32;;;;;;;10.82;6.97;;;;;;;9.12;28.10;101458.44;5015493;28;20100;-72
2022/03/03 05:08:58;;;;;;;11.13;7.20;;;;;;;9.11;27.97;101458.50;5019864;28;20125;-74
2022/03/03 05:11:25;;;;;;;11.73;7.13;;;;;;;9.08;28.42;101447.81;4994195;28;20053;-71
2022/03/03 05:13:51;;;;;;;11.35;7.75;;;;;;;9.06;28.43;101447.91;5008144;28;20151;-71
2022/03/03 05:16:18;;;;;;;11.30;7.18;;;;;;;9.04;28.20;101443.53;5007025;28;20519;-72
2022/03/03 05:18:45;;;;;;;11.23;6.97;;;;;;;9.02;28.37;101446.31;5008479;28;20607;-72
2022/03/03 05:21:11;;;;;;;10.00;7.03;;;;;;;8.99;28.16;101438.34;5010209;28;20128;-71
2022/03/03 05:23:39;;;;;;;11.55;7.88;;;;;;;8.98;28.38;101442.00;5006756;28;20053;-71
2022/03/03 05:26:06;;;;;;;13.20;7.82;;;;;;;8.96;28.34;101443.94;5005780;28;20141;-71
2022/03/03 05:28:33;;;;;;;10.55;7.20;;;;;;;8.95;28.39;101442.16;5003209;28;20077;-72
2022/03/03 05:30:59;;;;;;;11.73;7.28;;;;;;;8.95;28.45;101442.16;5005659;28;20137;-72
2022/03/03 05:33:26;;;;;;;11.18;6.95;;;;;;;8.96;28.54;101445.75;4993447;28;20066;-71
2022/03/03 05:36:00;;;;;;;11.45;7.55;;;;;;;8.99;29.02;101445.59;5002725;28;20050;-72
2022/03/03 05:38:29;;;;;;;12.02;7.40;;;;;;;8.98;28.57;101451.94;5009834;28;20140;-72
2022/03/03 05:40:58;;;;;;;11.98;7.25;;;;;;;8.98;28.40;101458.25;5017583;28;20547;-71
2022/03/03 05:43:25;;;;;;;10.30;6.90;;;;;;;8.98;28.69;101460.94;4999644;28;20053;-71
2022/03/03 05:45:53;;;;;;;10.65;7.03;;;;;;;8.98;28.57;101460.94;5007212;28;20125;-72
2022/03/03 05:48:21;;;;;;;10.70;7.25;;;;;;;8.99;28.60;101465.41;5003328;28;20589;-72
2022/03/03 05:50:49;;;;;;;12.13;7.47;;;;;;;9.00;28.58;101458.16;5006878;28;20080;-72
2022/03/03 05:53:16;;;;;;;11.00;7.43;;;;;;;8.99;28.54;101460.00;5004327;28;20069;-71
2022/03/03 05:55:49;;;;;;;11.85;7.30;;;;;;;9.01;29.06;101457.22;4994713;28;20125;-72
2022/03/03 05:58:22;;;;;;;10.43;7.10;;;;;;;8.99;28.72;101456.41;4997694;28;20546;-72
2022/03/03 06:00:51;;;;;;;10.38;7.30;;;;;;;8.99;28.81;101454.59;5005644;28;20080;-71
2022/03/03 06:03:19;;;;;;;9.32;6.70;;;;;;;8.98;28.81;101449.25;4999465;28;20608;-71
2022/03/03 06:05:56;;;;;;;11.25;7.47;;;;;;;9.00;29.08;101450.03;4987217;28;20298;-72
2022/03/03 06:08:26;;;;;;;13.95;8.15;;;;;;;8.97;28.68;101442.97;4987172;28;20038;-71
2022/03/03 06:10:53;;;;;;;11.55;8.07;;;;;;;8.97;28.75;101453.81;5004452;28;20144;-72
2022/03/03 06:13:27;;;;;;;13.90;8.52;;;;;;;8.98;29.11;101452.81;5004956;28;20050;-72
2022/03/03 06:15:54;;;;;;;11.50;7.30;;;;;;;8.94;28.57;101458.50;5001463;28;20134;-71
2022/03/03 06:18:27;;;;;;;12.25;7.53;;;;;;;8.96;29.24;101457.47;5009159;28;20053;-71
2022/03/03 06:20:54;;;;;;;12.93;7.88;;;;;;;8.92;28.69;101455.84;5009831;28;20124;-71
2022/03/03 06:23:20;;;;;;;12.30;8.13;;;;;;;8.92;28.62;101463.97;5005455;28;20100;-72
2022/03/03 06:25:56;;;;;;;10.95;7.53;;;;;;;8.93;29.05;101468.44;5008338;28;20137;-72
2022/03/03 06:28:23;;;;;;;11.82;7.78;;;;;;;8.90;28.69;101471.28;5008484;28;20049;-71
2022/03/03 06:30:50;;;;;;;13.65;7.85;;;;;;;8.90;28.99;101468.59;5009263;28;20149;-72
2022/03/03 06:33:17;;;;;;;12.07;7.97;;;;;;;8.89;28.85;101469.56;5009870;28;20060;-71
2022/03/03 06:35:44;;;;;;;11.30;7.38;;;;;;;8.88;29.14;101467.81;4991077;28;20093;-71
2022/03/03 06:38:10;;;;;;;14.52;8.27;;;;;;;8.88;28.77;101470.50;5008525;28;20049;-71
2022/03/03 06:40:38;;;;;;;10.32;7.10;;;;;;;8.86;29.21;101474.25;5005954;28;20530;-73
2022/03/03 06:43:04;;;;;;;12.68;7.38;;;;;;;8.86;28.87;101475.13;4995043;28;20050;-71
2022/03/03 06:45:32;;;;;;;11.95;7.47;;;;;;;8.84;28.92;101468.91;5006400;28;20528;-73
2022/03/03 06:48:01;;;;;;;11.68;7.18;;;;;;;8.85;29.21;101478.78;4992019;28;20072;-71
2022/03/03 06:50:27;;;;;;;10.57;6.95;;;;;;;8.83;29.48;101482.50;5016576;28;20046;-71
2022/03/03 06:52:55;;;;;;;11.10;7.47;;;;;;;8.83;29.33;101479.81;5008691;28;20048;-70
2022/03/03 06:55:24;;;;;;;12.40;7.93;;;;;;;8.85;29.75;101478.78;4989179;28;20514;-71
2022/03/03 06:57:54;;;;;;;11.65;7.32;;;;;;;8.90;30.18;101478.53;5007742;28;20522;-71
2022/03/03 07:00:23;;;;;;;12.68;8.07;;;;;;;8.97;30.58;101475.47;5007087;28;20137;-70
2022/03/03 07:02:50;;;;;;;11.15;7.70;;;;;;;9.09;30.63;101482.09;5008534;28;20411;-71
2022/03/03 07:05:17;;;;;;;13.63;7.75;;;;;;;9.24;30.80;101486.72;4999729;28;20053;-71
2022/03/03 07:07:46;;;;;;;12.35;8.70;;;;;;;9.42;30.88;101477.66;5016419;28;20095;-72
2022/03/03 07:10:14;;;;;;;13.30;8.05;;;;;;;9.62;31.05;101473.03;4991110;28;20136;-72
2022/03/03 07:12:41;;;;;;;12.07;7.70;;;;;;;9.81;30.82;101488.22;5006299;28;20137;-73
2022/03/03 07:15:09;;;;;;;11.90;8.32;;;;;;;10.04;31.21;101477.97;4988771;28;20078;-71
2022/03/03 07:17:38;;;;;;;12.13;8.65;;;;;;;10.26;31.11;101473.13;5006652;28;20129;-72
2022/03/03 07:20:07;;;;;;;14.45;9.20;;;;;;;10.49;31.07;101475.44;5012798;28;20125;-72
2022/03/03 07:22:46;;;;;;;10.93;8.55;;;;;;;10.73;30.86;101475.88;5007416;28;20049;-69
2022/03/03 07:25:14;;;;;;;12.40;8.27;;;;;;;10.97;31.20;101477.16;5006513;28;20137;-69
2022/03/03 07:27:45;;;;;;;14.15;8.82;;;;;;;11.22;30.68;101478.41;5007644;28;20073;-69
2022/03/03 07:30:15;;;;;;;11.95;8.63;;;;;;;11.45;30.76;101483.34;5003908;28;20066;-69
2022/03/03 07:32:55;;;;;;;14.25;8.40;;;;;;;11.71;30.17;101471.75;5008431;28;20049;-69
2022/03/03 07:35:25;;;;;;;13.57;9.20;;;;;;;11.91;30.61;101478.72;5006994;28;20128;-69
2022/03/03 07:38:02;;;;;;;12.00;8.48;;;;;;;12.15;29.83;101482.63;5006926;28;20046;-69
2022/03/03 07:40:31;;;;;;;12.98;8.10;;;;;;;12.35;30.29;101491.38;5003161;28;20132;-69
2022/03/03 07:43:00;;;;;;;13.95;8.07;;;;;;;12.55;30.03;101483.66;5008749;28;20084;-69
2022/03/03 07:45:27;;;;;;;13.07;8.63;;;;;;;12.76;29.79;101484.13;5005907;28;20172;-69
2022/03/03 07:47:55;;;;;;;14.90;8.80;;;;;;;12.98;29.67;101490.84;5019779;28;20088;-69
2022/03/03 07:50:23;;;;;;;11.70;8.02;;;;;;;13.18;29.33;101493.13;4995556;28;20057;-69
2022/03/03 07:52:51;;;;;;;11.52;8.27;;;;;;;13.36;29.00;101497.34;5007407;28;20045;-69
2022/03/03 07:55:18;;;;;;;10.85;7.78;;;;;;;13.53;29.14;101488.88;4991874;28;20136;-69
2022/03/03 07:58:02;;;;;;;12.98;9.05;;;;;;;13.73;27.87;101487.50;5018737;28;20124;-69
2022/03/03 08:00:34;;;;;;;12.48;8.68;;;;;;;13.88;27.55;101480.09;5003327;28;20065;-69
2022/03/03 08:03:08;;;;;;;11.77;8.30;;;;;;;13.99;27.28;101481.09;5006954;28;20058;-69
2022/03/03 08:05:35;;;;;;;12.20;8.43;;;;;;;14.09;27.55;101476.69;5006667;28;20300;-69
2022/03/03 08:08:04;;;;;;;14.15;8.25;;;;;;;14.17;26.97;101481.59;4989395;28;20077;-69
2022/03/03 08:10:32;;;;;;;11.02;7.82;;;;;;;14.19;26.41;101481.50;5005063;28;20136;-68
2022/03/03 08:13:00;;;;;;;12.68;8.20;;;;;;;14.19;26.16;101482.38;5006876;28;20097;-73
2022/03/03 08:15:27;;;;;;;11.50;8.02;;;;;;;14.17;26.19;101481.59;5004802;28;20561;-68
2022/03/03 08:17:54;;;;;;;12.35;8.02;;;;;;;14.14;26.10;101490.03;4993946;28;20128;-71
2022/03/03 08:20:22;;;;;;;11.27;7.80;;;;;;;14.10;25.91;101483.03;4993507;28;20090;-72
2022/03/03 08:22:48;;;;;;;12.20;8.20;;;;;;;14.04;25.97;101486.22;5009246;28;20422;-71
2022/03/03 08:25:16;;;;;;;10.80;7.57;;;;;;;14.01;25.82;101490.03;5026251;28;20648;-71
2022/03/03 08:27:42;;;;;;;10.00;7.68;;;;;;;13.96;25.69;101484.03;5028143;28;20045;-71
2022/03/03 08:30:12;;;;;;;10.95;7.88;;;;;;;13.96;25.55;101486.75;5017066;28;20069;-71
2022/03/03 08:32:41;;;;;;;10.82;7.43;;;;;;;13.94;25.23;101477.78;5010092;28;20053;-71
2022/03/03 08:35:14;;;;;;;12.50;7.75;;;;;;;13.96;24.78;101481.28;5023949;28;20057;-71
2022/03/03 08:37:57;;;;;;;11.45;8.02;;;;;;;13.89;24.71;101482.72;5025596;28;20080;-71
2022/03/03 08:40:24;;;;;;;12.85;8.48;;;;;;;13.81;25.08;101485.13;5014123;28;20054;-69
2022/03/03 08:42:56;;;;;;;11.95;7.55;;;;;;;13.78;24.92;101487.16;5003758;28;20128;-72
2022/03/03 08:45:24;;;;;;;10.43;7.88;;;;;;;13.74;24.75;101483.81;5007941;28;20104;-71
2022/03/03 08:47:59;;;;;;;12.07;7.65;;;;;;;13.71;24.54;101487.59;5012904;28;20079;-71
2022/03/03 08:50:31;;;;;;;11.98;7.57;;;;;;;13.65;25.32;101478.97;5019024;28;20136;-71
2022/03/03 08:52:59;;;;;;;11.90;8.13;;;;;;;13.61;24.81;101475.56;5006401;28;20081;-70
2022/03/03 08:55:27;;;;;;;10.02;7.50;;;;;;;13.60;24.88;101484.75;5004683;28;20050;-70
2022/03/03 08:57:54;;;;;;;11.43;7.72;;;;;;;13.59;24.87;101476.66;5005399;28;20132;-70
2022/03/03 09:00:21;;;;;;;9.68;6.82;;;;;;;13.58;24.95;101473.09;5004154;28;20494;-71
2022/03/03 09:02:48;;;;;;;10.18;7.03;;;;;;;13.58;25.23;101473.09;5005128;28;20530;-71
2022/03/03 09:05:15;;;;;;;10.65;7.35;;;;;;;13.60;24.97;101478.41;5003123;28;20591;-71
2022/03/03 09:07:42;;;;;;;10.65;7.40;;;;;;;13.63;24.96;101480.94;5016396;28;20045;-70
2022/03/03 09:10:09;;;;;;;11.65;7.97;;;;;;;13.64;24.28;101479.97;5008528;28;20050;-69
2022/03/03 09:12:36;;;;;;;10.20;7.45;;;;;;;13.67;24.60;101477.03;5006398;28;20071;-71
2022/03/03 09:15:04;;;;;;;11.32;7.65;;;;;;;13.69;24.60;101484.09;4985162;28;20060;-71
2022/03/03 09:17:33;;;;;;;10.90;6.90;;;;;;;13.74;24.75;101485.66;4995716;28;20045;-71
2022/03/03 09:20:02;;;;;;;10.07;7.53;;;;;;;13.78;24.55;101476.25;5004967;28;20144;-69
2022/03/03 09:22:29;;;;;;;10.48;7.68;;;;;;;13.84;24.53;101473.09;4994740;28;20085;-71
2022/03/03 09:24:56;;;;;;;11.55;8.75;;;;;;;13.86;24.43;101468.41;5006101;28;20096;-71
2022/03/03 09:27:23;;;;;;;11.20;7.45;;;;;;;13.91;24.50;101458.03;5007525;28;20045;-71
2022/03/03 09:29:50;;;;;;;9.52;7.30;;;;;;;13.94;24.37;101464.13;4988721;28;20050;-70
2022/03/03 09:32:17;;;;;;;9.60;6.65;;;;;;;14.01;24.60;101465.44;5023432;28;20454;-71
2022/03/03 09:34:45;;;;;;;8.60;6.90;;;;;;;14.07;24.76;101464.16;5008832;28;20144;-72
2022/03/03 09:37:15;;;;;;;9.73;6.55;;;;;;;14.18;24.48;101464.22;5022180;28;20510;-71
2022/03/03 09:39:44;;;;;;;8.57;6.22;;;;;;;14.25;24.83;101451.00;5017116;28;20136;-71
2022/03/03 09:42:10;;;;;;;9.75;7.13;;;;;;;14.32;24.38;101445.00;5009493;28;20046;-71
2022/03/03 09:44:37;;;;;;;9.52;6.80;;;;;;;14.41;24.32;101454.44;5006494;28;20054;-70
2022/03/03 09:47:04;;;;;;;9.30;7.13;;;;;;;14.49;24.33;101445.66;5006649;28;20085;-71
2022/03/03 09:49:30;;;;;;;10.13;7.53;;;;;;;14.57;24.38;101451.44;5019073;28;20061;-70
2022/03/03 09:51:57;;;;;;;10.18;7.28;;;;;;;14.64;24.35;101450.00;5007137;28;20100;-73
2022/03/03 09:54:24;;;;;;;10.05;7.03;;;;;;;14.71;24.25;101446.69;5006177;28;20078;-71
2022/03/03 09:56:50;;;;;;;10.13;7.03;;;;;;;14.79;24.40;101446.09;5006953;28;20133;-70
2022/03/03 09:59:17;;;;;;;9.10;6.68;;;;;;;14.87;24.57;101453.72;5008658;28;20046;-70
2022/03/03 10:01:45;;;;;;;10.43;7.28;;;;;;;14.96;24.08;101453.91;5090208;22;20045;-82
2022/03/03 10:04:19;;;;;;;10.75;7.47;;;;;;;15.08;23.63;101452.09;5057872;28;20072;-83
2022/03/03 10:06:46;;;;;;;10.57;7.20;;;;;;;15.11;24.10;101451.88;5058260;28;20059;-83
2022/03/03 10:09:16;;;;;;;10.35;7.28;;;;;;;15.20;23.96;101451.16;5054879;28;20056;-82
2022/03/03 10:11:49;;;;;;;8.80;6.38;;;;;;;15.31;23.60;101456.69;5024133;28;20049;-82
2022/03/03 10:14:25;;;;;;;9.57;6.95;;;;;;;15.38;23.67;101460.69;5036919;28;20061;-82
2022/03/03 10:16:52;;;;;;;9.43;6.47;;;;;;;15.47;24.16;101454.50;5038970;28;20041;-83
2022/03/03 10:19:56;;;;;;;9.93;6.60;;;;;;;15.62;23.75;101459.81;5036460;28;20045;-82
2022/03/03 10:22:39;;;;;;;7.68;6.40;;;;;;;15.74;24.03;101461.56;5039655;28;20048;-83
2022/03/03 10:25:08;;;;;;;8.40;6.18;;;;;;;15.87;23.68;101459.63;5019055;28;20057;-82
2022/03/03 10:27:38;;;;;;;8.93;6.53;;;;;;;15.99;23.57;101448.53;5044815;28;20063;-82
2022/03/03 10:30:08;;;;;;;10.32;6.38;;;;;;;16.13;23.69;101443.84;5038526;28;20049;-82
2022/03/03 10:32:39;;;;;;;9.02;6.47;;;;;;;16.20;23.47;101437.75;5040724;28;20084;-82
2022/03/03 10:35:19;;;;;;;9.25;6.70;;;;;;;16.31;22.68;101434.09;5044384;28;20056;-83
2022/03/03 10:37:47;;;;;;;9.23;7.00;;;;;;;16.34;23.00;101437.47;5036611;28;20049;-83
2022/03/03 10:40:16;;;;;;;8.85;6.38;;;;;;;16.46;23.14;101435.63;5037128;28;20107;-83
2022/03/03 10:42:50;;;;;;;10.00;6.90;;;;;;;16.51;22.70;101435.22;5018967;28;20073;-81
2022/03/03 10:45:19;;;;;;;8.98;6.78;;;;;;;16.57;22.88;101421.00;5018335;28;20103;-82
2022/03/03 10:48:03;;;;;;;10.00;6.60;;;;;;;16.66;22.39;101431.25;5019702;28;20045;-83
2022/03/03 10:50:50;;;;;;;9.52;6.88;;;;;;;16.70;22.42;101435.47;5015295;28;20064;-83
2022/03/03 10:53:18;;;;;;;9.48;6.30;;;;;;;16.76;22.74;101426.75;5038951;28;20362;-83
2022/03/03 10:56:05;;;;;;;8.75;6.70;;;;;;;16.85;22.34;101427.84;5050530;28;20141;-82
2022/03/03 10:58:48;;;;;;;10.13;7.43;;;;;;;16.92;21.96;101429.94;5035795;28;20072;-83
2022/03/03 11:01:19;;;;;;;8.55;6.25;;;;;;;16.96;22.10;101428.69;5011678;28;20049;-83
2022/03/03 11:03:49;;;;;;;7.90;6.28;;;;;;;16.98;22.45;101420.31;5043730;28;20061;-83
2022/03/03 11:06:18;;;;;;;8.95;7.13;;;;;;;17.07;22.02;101428.63;5029341;28;20439;-82
2022/03/03 11:08:47;;;;;;;9.32;6.25;;;;;;;17.09;22.42;101437.59;5044891;28;20447;-83
2022/03/03 11:11:14;;;;;;;8.55;6.10;;;;;;;17.13;21.97;101421.75;5039625;28;20082;-83
2022/03/03 11:13:43;;;;;;;8.85;6.50;;;;;;;17.22;21.96;101420.09;5040004;28;20060;-82
2022/03/03 11:16:10;;;;;;;8.10;6.38;;;;;;;17.26;21.83;101427.94;5042885;28;20054;-83
2022/03/03 11:18:37;;;;;;;8.68;6.55;;;;;;;17.29;21.73;101426.81;5053732;28;20064;-82
2022/03/03 11:21:04;;;;;;;9.02;6.60;;;;;;;17.31;21.43;101419.28;5040902;28;20049;-81
2022/03/03 11:23:42;;;;;;;7.50;6.13;;;;;;;17.35;20.92;101424.41;5025575;28;20045;-82
2022/03/03 11:26:23;;;;;;;8.95;6.78;;;;;;;17.36;20.63;101425.28;5035429;28;20045;-81
2022/03/03 11:29:02;;;;;;;8.23;6.20;;;;;;;17.35;20.76;101424.41;5023067;28;20092;-81